Flugplatz Spangdahlem Air Base

Bericht für ETAD

vom 07.08. um 17:56 UTC

Wind 4 kt aus 80°

Sichtweite 10 km oder mehr

keine Wolken

Temperatur 30.5°C

Taupunkt 10.9°C

Luftfeuchtigkeit 30%

Luftdruck 1019 hPa

ETAD 071756Z AUTO 08004KT 9999 CLR 31/11 A3010 RMK AO2 SLP165 T03050109 10327 20305 55003

Prognose für ETAD

vom 07.08. um 12:00 UTC

Zwischen 12:00 UTC und 20:00 UTC

Wind 9 kt aus 90°

Sichtweite 10 km oder mehr

gering bewölkt in 10000 ft


Zwischen 20:00 und 21:00 UTC übergehend zu

variable Windrichtung mit 3 kt

Sichtweite 10 km oder mehr

keine Wolken


Am 08.08. zwischen 09:00 und 10:00 UTC übergehend zu

Wind 8 kt aus 150°

Sichtweite 10 km oder mehr

gering bewölkt in 7000 ft

TAF ETAD 071200Z 0712/0818 09009KT 9999 FEW100 QNH3010INS BECMG 0720/0721 VRB03KT 9999 SKC QNH3014INS BECMG 0809/0810 15008KT 9999 FEW070 QNH3016INS TX33/0715Z TN16/0804Z
Impressum